Wind Runner — WDD3233 — position and weather

sailwx.info

Track history (hours):
 
Tides and Currents Weather Stations Pressure Air Temp Water Temp Dewpoint Dewpoint Depression Visibility Wind Speed Wind Dir Waves Ship Positions

Wind Runner

Owner: Williams, James A, Marlborough, CT. More information available from US FCC via Universal Licensing System and Coast Guard Vessel Documentation Center.

Last reported at 2015-Jul-01 08:07 UTC. Time now 2015-Jul-02 00:57 UTC.
Position N 41°26' W 070°55'.

Length 14 m.

Type: Sailing vessel. MMSI: 367127660.

Date/timePositionNaut miles runAvg speedWind from/ knotsBaromVisibWave heightAir tempDewpointWater temp
2015-Jul-01 08:07N 41°26' W 070°55'0 0.0
2015-Jul-01 04:25N 41°26' W 070°55'0 0.0
2015-Jul-01 03:25N 41°26' W 070°55'0 0.0
2015-Jun-30 22:13N 41°26' W 070°55'0 0.0
2015-Jun-30 21:16N 41°26' W 070°55'0 0.0
2015-Jun-30 20:22N 41°26' W 070°55'0 0.0
2015-Jun-30 19:31N 41°26' W 070°55'1 1.1
2015-Jun-30 18:33N 41°26' W 070°57'6 6.4
2015-Jun-30 17:33N 41°25' W 071°05'7 6.6
2015-Jun-30 16:33N 41°23' W 071°13'7 5.5
2015-Jun-30 15:21N 41°21' W 071°22'5 6.6
2015-Jun-30 14:33N 41°19' W 071°28'6 6.2
2015-Jun-30 13:33N 41°19' W 071°37'6 6.3
2015-Jun-30 12:33N 41°18' W 071°45'6 5.8
2015-Jun-30 11:33N 41°18' W 071°53'2 2.1
2015-Jun-30 10:33N 41°20' W 071°51'2 2.1
2015-Jun-30 09:30N 41°22' W 071°50'0 0.0
2015-Jun-30 08:30N 41°22' W 071°50'0 0.0
2015-Jun-30 07:18N 41°22' W 071°50'0 0.0
2015-Jun-30 06:30N 41°22' W 071°50'0 0.0
2015-Jun-30 05:33N 41°22' W 071°50'0 0.0
2015-Jun-30 04:30N 41°22' W 071°50'0 0.0
2015-Jun-30 03:33N 41°22' W 071°50'0 0.0
2015-Jun-30 02:33N 41°22' W 071°50'0 0.0
2015-Jun-30 01:33N 41°22' W 071°50'0 0.0
2015-Jun-30 00:33N 41°22' W 071°50'0 0.0
2015-Jun-29 23:33N 41°22' W 071°50'0 0.0
2015-Jun-29 22:33N 41°22' W 071°50'0 0.0
2015-Jun-29 21:33N 41°22' W 071°50'0 0.0
2015-Jun-29 20:30N 41°22' W 071°50'0 0.0
2015-Jun-29 19:33N 41°22' W 071°50'0 0.0
2015-Jun-29 18:33N 41°22' W 071°50'0 0.0
2015-Jun-29 17:33N 41°22' W 071°50'0 0.0
2015-Jun-29 16:33N 41°22' W 071°50'0 0.0
2015-Jun-29 15:33N 41°22' W 071°50'0 0.0
2015-Jun-29 14:27N 41°22' W 071°50'0 0.0
2015-Jun-29 13:33N 41°22' W 071°50'0 0.0
2015-Jun-29 12:27N 41°22' W 071°50'0 0.0
2015-Jun-29 11:33N 41°22' W 071°50'0 0.0
2015-Jun-29 10:30N 41°22' W 071°50'0 0.0
2015-Jun-29 09:33N 41°22' W 071°50'0 0.0
2015-Jun-29 08:33N 41°22' W 071°50'0 0.0
2015-Jun-29 07:33N 41°22' W 071°50'0 0.0
2015-Jun-29 06:33N 41°22' W 071°50'0 0.0
2015-Jun-29 05:33N 41°22' W 071°50'0 0.0
2015-Jun-29 04:33N 41°22' W 071°50'0 0.0
2015-Jun-29 03:33N 41°22' W 071°50'0 0.0
2015-Jun-29 02:33N 41°22' W 071°50'0 0.0
2015-Jun-29 01:33N 41°22' W 071°50'0 0.0
2015-Jun-29 00:33N 41°22' W 071°50'0 0.0
2015-Jun-28 23:33N 41°22' W 071°50'0 0.0
2015-Jun-28 22:33N 41°22' W 071°50'0 0.0
2015-Jun-28 21:33N 41°22' W 071°50'0 0.0
2015-Jun-28 20:33N 41°22' W 071°50'0 0.0
2015-Jun-28 19:33N 41°22' W 071°50'0 0.0
2015-Jun-28 18:27N 41°22' W 071°50'0 0.0
2015-Jun-28 17:30N 41°22' W 071°50'0 0.0
2015-Jun-28 16:33N 41°22' W 071°50'0 0.0
2015-Jun-28 15:33N 41°22' W 071°50'0 0.0
2015-Jun-28 14:33N 41°22' W 071°50'0 0.0
2015-Jun-28 13:33N 41°22' W 071°50'0 0.0
2015-Jun-28 12:33N 41°22' W 071°50'0 0.0
2015-Jun-28 11:30N 41°22' W 071°50'0 0.0
2015-Jun-28 10:33N 41°22' W 071°50'0 0.0
2015-Jun-28 09:33N 41°22' W 071°50'0 0.0
2015-Jun-28 08:30N 41°22' W 071°50'0 0.0
2015-Jun-28 07:33N 41°22' W 071°50'0 0.0
2015-Jun-28 06:33N 41°22' W 071°50'0 0.0
2015-Jun-28 05:33N 41°22' W 071°50'0 0.0
2015-Jun-28 04:33N 41°22' W 071°50'0 0.0
2015-Jun-28 03:30N 41°22' W 071°50'0 0.0
2015-Jun-28 02:33N 41°22' W 071°50'0 0.0
2015-Jun-28 01:33N 41°22' W 071°50'0 0.0
2015-Jun-28 00:33N 41°22' W 071°50'0 0.0
2015-Jun-27 23:33N 41°22' W 071°50'0 0.0
2015-Jun-27 22:33N 41°22' W 071°50'0 0.0
2015-Jun-27 21:33N 41°22' W 071°50'0 0.0
2015-Jun-27 20:33N 41°22' W 071°50'0 0.0
2015-Jun-27 19:33N 41°22' W 071°50'0 0.0
2015-Jun-27 18:33N 41°22' W 071°50'0 0.0
2015-Jun-27 17:33N 41°22' W 071°50'0 0.0
2015-Jun-27 16:33N 41°22' W 071°50'0 0.0
2015-Jun-27 15:30N 41°22' W 071°50'0 0.0
2015-Jun-27 14:33N 41°22' W 071°50'0 0.0
2015-Jun-27 13:33N 41°22' W 071°50'0 0.0
2015-Jun-27 12:33N 41°22' W 071°50'0 0.0
2015-Jun-27 11:33N 41°22' W 071°50'0 0.0
2015-Jun-27 10:33N 41°22' W 071°50'0 0.0
2015-Jun-27 09:33N 41°22' W 071°50'0 0.0
2015-Jun-27 08:33N 41°22' W 071°50'0 0.0
2015-Jun-27 07:33N 41°22' W 071°50'0 0.0
2015-Jun-27 06:33N 41°22' W 071°50'0 0.0
2015-Jun-27 05:33N 41°22' W 071°50'0 0.0
2015-Jun-27 04:30N 41°22' W 071°50'0 0.0
2015-Jun-27 03:27N 41°22' W 071°50'0 0.0
2015-Jun-27 02:33N 41°22' W 071°50'0 0.0
2015-Jun-27 01:33N 41°22' W 071°50'0 0.0
2015-Jun-27 00:30N 41°22' W 071°50'0 0.0
2015-Jun-26 23:33N 41°22' W 071°50'0 0.0
2015-Jun-26 22:30N 41°22' W 071°50'0 0.0
2015-Jun-26 21:27N 41°22' W 071°50'0 0.0
2015-Jun-26 20:33N 41°22' W 071°50'0 0.0
2015-Jun-26 19:30N 41°22' W 071°50'0 0.0
2015-Jun-26 18:30N 41°22' W 071°50'0 0.0
2015-Jun-26 17:24N 41°22' W 071°50'0 0.0
2015-Jun-26 16:33N 41°22' W 071°50'0 0.0
2015-Jun-26 12:33N 41°22' W 071°50'0 0.0
2015-Jun-26 11:33N 41°22' W 071°50'0 0.0
2015-Jun-26 10:33N 41°22' W 071°50'0 0.0
2015-Jun-26 09:33N 41°22' W 071°50'0 0.0
2015-Jun-26 08:33N 41°22' W 071°50'0 0.0
2015-Jun-26 07:34N 41°22' W 071°50'0 0.0
2015-Jun-26 06:25N 41°22' W 071°50'0 0.0
2015-Jun-26 05:25N 41°22' W 071°50'0 0.0
2015-Jun-26 04:34N 41°22' W 071°50'0 0.0
2015-Jun-26 03:31N 41°22' W 071°50'0 0.0
2015-Jun-26 02:31N 41°22' W 071°50'0 0.0
2015-Jun-26 01:28N 41°22' W 071°50'0 0.0
2015-Jun-26 00:25N 41°22' W 071°50'0 0.0
2015-Jun-25 23:31N 41°22' W 071°50'0 0.0
2015-Jun-25 22:31N 41°22' W 071°50'0 0.0
2015-Jun-25 21:31N 41°22' W 071°50'0 0.0
2015-Jun-25 20:31N 41°22' W 071°50'0 0.0
2015-Jun-25 19:31N 41°22' W 071°50'0 0.0
2015-Jun-25 18:31N 41°22' W 071°50'0 0.0
2015-Jun-25 17:31N 41°22' W 071°50'0 0.0
2015-Jun-25 16:31N 41°22' W 071°50'0 0.0
2015-Jun-25 15:31N 41°22' W 071°50'0 0.0
2015-Jun-25 14:31N 41°22' W 071°50'0 0.0
2015-Jun-25 13:31N 41°22' W 071°50'0 0.0
2015-Jun-25 11:31N 41°22' W 071°50'0 0.0
2015-Jun-25 10:28N 41°22' W 071°50'0 0.0
2015-Jun-25 09:31N 41°22' W 071°50'0 0.0
2015-Jun-25 08:31N 41°22' W 071°50'0 0.0
2015-Jun-25 07:31N 41°22' W 071°50'0 0.0
2015-Jun-25 06:31N 41°22' W 071°50'0 0.0
2015-Jun-25 05:31N 41°22' W 071°50'0 0.0
2015-Jun-25 04:31N 41°22' W 071°50'0 0.0
2015-Jun-25 03:31N 41°22' W 071°50'0 0.0
2015-Jun-25 02:31N 41°22' W 071°50'0 0.0
2015-Jun-25 01:31N 41°22' W 071°50'0 0.0
2015-Jun-25 00:28N 41°22' W 071°50'0 0.0
2015-Jun-24 23:31N 41°22' W 071°50'0 0.0
2015-Jun-24 22:31N 41°22' W 071°50'0 0.0
2015-Jun-24 21:28N 41°22' W 071°50'0 0.0
2015-Jun-24 20:31N 41°22' W 071°50'0 0.0
2015-Jun-24 19:31N 41°22' W 071°50'0 0.0
2015-Jun-24 18:28N 41°22' W 071°50'0 0.0
2015-Jun-24 17:31N 41°22' W 071°50'0 0.0
2015-Jun-24 16:28N 41°22' W 071°50'0 0.0
2015-Jun-24 15:31N 41°22' W 071°50'0 0.0
2015-Jun-24 14:22N 41°22' W 071°50'0 0.0
2015-Jun-24 13:31N 41°22' W 071°50'0 0.0
2015-Jun-24 12:22N 41°22' W 071°50'0 0.0
2015-Jun-24 11:28N 41°22' W 071°50'0 0.0
2015-Jun-24 10:28N 41°22' W 071°50'0 0.0
2015-Jun-24 09:31N 41°22' W 071°50'0 0.0
2015-Jun-24 08:31N 41°22' W 071°50'0 0.0
2015-Jun-24 07:31N 41°22' W 071°50'0 0.0
2015-Jun-24 06:31N 41°22' W 071°50'0 0.0
2015-Jun-24 05:31N 41°22' W 071°50'0 0.0
2015-Jun-24 04:31N 41°22' W 071°50'0 0.0
2015-Jun-24 03:31N 41°22' W 071°50'0 0.0
2015-Jun-24 02:25N 41°22' W 071°50'0 0.0
2015-Jun-24 00:31N 41°22' W 071°50'0 0.0
2015-Jun-23 23:31N 41°22' W 071°50'0 0.0
2015-Jun-23 22:31N 41°22' W 071°50'0 0.0
2015-Jun-23 21:22N 41°22' W 071°50'0 0.0
2015-Jun-23 20:31N 41°22' W 071°50'0 0.0
2015-Jun-23 19:28N 41°22' W 071°50'0 0.0
2015-Jun-23 18:52N 41°22' W 071°50'0 0.0
2015-Jun-22 19:25N 41°22' W 071°50'0 0.0
2015-Jun-22 18:22N 41°22' W 071°50'0 0.0
2015-Jun-22 17:31N 41°22' W 071°50'0 0.0
2015-Jun-22 16:31N 41°22' W 071°50'0 0.0
2015-Jun-22 15:31N 41°22' W 071°50'0 0.0
2015-Jun-22 14:25N 41°22' W 071°50'0 0.0
2015-Jun-22 13:31N 41°22' W 071°50'0 0.0
2015-Jun-21 14:31N 41°22' W 071°50'0 0.0
2015-Jun-21 13:31N 41°22' W 071°50'0 0.0
2015-Jun-21 12:31N 41°22' W 071°50'0 0.0
2015-Jun-21 11:31N 41°22' W 071°50'0 0.0
2015-Jun-21 10:31N 41°22' W 071°50'0 0.0
2015-Jun-21 09:31N 41°22' W 071°50'0 0.0
2015-Jun-21 08:32N 41°22' W 071°50'  
Track history (hours):
 
Tides and Currents Weather Stations Pressure Air Temp Water Temp Dewpoint Dewpoint Depression Visibility Wind Speed Wind Dir Waves Ship Positions

Wind Runner

Owner: Williams, James A, Marlborough, CT. More information available from US FCC via Universal Licensing System and Coast Guard Vessel Documentation Center.

Last reported at 2015-Jul-01 08:07 UTC. Time now 2015-Jul-02 00:57 UTC.
Position N 41°26' W 070°55'.

Length 14 m.

Type: Sailing vessel. MMSI: 367127660.

Date/timePositionNaut miles runAvg speedWind from/ knotsBaromVisibWave heightAir tempDewpointWater temp
2015-Jul-01 08:07N 41°26' W 070°55'0 0.0
2015-Jul-01 04:25N 41°26' W 070°55'0 0.0
2015-Jul-01 03:25N 41°26' W 070°55'0 0.0
2015-Jun-30 22:13N 41°26' W 070°55'0 0.0
2015-Jun-30 21:16N 41°26' W 070°55'0 0.0
2015-Jun-30 20:22N 41°26' W 070°55'0 0.0
2015-Jun-30 19:31N 41°26' W 070°55'1 1.1
2015-Jun-30 18:33N 41°26' W 070°57'6 6.4
2015-Jun-30 17:33N 41°25' W 071°05'7 6.6
2015-Jun-30 16:33N 41°23' W 071°13'7 5.5
2015-Jun-30 15:21N 41°21' W 071°22'5 6.6
2015-Jun-30 14:33N 41°19' W 071°28'6 6.2
2015-Jun-30 13:33N 41°19' W 071°37'6 6.3
2015-Jun-30 12:33N 41°18' W 071°45'6 5.8
2015-Jun-30 11:33N 41°18' W 071°53'2 2.1
2015-Jun-30 10:33N 41°20' W 071°51'2 2.1
2015-Jun-30 09:30N 41°22' W 071°50'0 0.0
2015-Jun-30 08:30N 41°22' W 071°50'0 0.0
2015-Jun-30 07:18N 41°22' W 071°50'0 0.0
2015-Jun-30 06:30N 41°22' W 071°50'0 0.0
2015-Jun-30 05:33N 41°22' W 071°50'0 0.0
2015-Jun-30 04:30N 41°22' W 071°50'0 0.0
2015-Jun-30 03:33N 41°22' W 071°50'0 0.0
2015-Jun-30 02:33N 41°22' W 071°50'0 0.0
2015-Jun-30 01:33N 41°22' W 071°50'0 0.0
2015-Jun-30 00:33N 41°22' W 071°50'0 0.0
2015-Jun-29 23:33N 41°22' W 071°50'0 0.0
2015-Jun-29 22:33N 41°22' W 071°50'0 0.0
2015-Jun-29 21:33N 41°22' W 071°50'0 0.0
2015-Jun-29 20:30N 41°22' W 071°50'0 0.0
2015-Jun-29 19:33N 41°22' W 071°50'0 0.0
2015-Jun-29 18:33N 41°22' W 071°50'0 0.0
2015-Jun-29 17:33N 41°22' W 071°50'0 0.0
2015-Jun-29 16:33N 41°22' W 071°50'0 0.0
2015-Jun-29 15:33N 41°22' W 071°50'0 0.0
2015-Jun-29 14:27N 41°22' W 071°50'0 0.0
2015-Jun-29 13:33N 41°22' W 071°50'0 0.0
2015-Jun-29 12:27N 41°22' W 071°50'0 0.0
2015-Jun-29 11:33N 41°22' W 071°50'0 0.0
2015-Jun-29 10:30N 41°22' W 071°50'0 0.0
2015-Jun-29 09:33N 41°22' W 071°50'0 0.0
2015-Jun-29 08:33N 41°22' W 071°50'0 0.0
2015-Jun-29 07:33N 41°22' W 071°50'0 0.0
2015-Jun-29 06:33N 41°22' W 071°50'0 0.0
2015-Jun-29 05:33N 41°22' W 071°50'0 0.0
2015-Jun-29 04:33N 41°22' W 071°50'0 0.0
2015-Jun-29 03:33N 41°22' W 071°50'0 0.0
2015-Jun-29 02:33N 41°22' W 071°50'0 0.0
2015-Jun-29 01:33N 41°22' W 071°50'0 0.0
2015-Jun-29 00:33N 41°22' W 071°50'0 0.0
2015-Jun-28 23:33N 41°22' W 071°50'0 0.0
2015-Jun-28 22:33N 41°22' W 071°50'0 0.0
2015-Jun-28 21:33N 41°22' W 071°50'0 0.0
2015-Jun-28 20:33N 41°22' W 071°50'0 0.0
2015-Jun-28 19:33N 41°22' W 071°50'0 0.0
2015-Jun-28 18:27N 41°22' W 071°50'0 0.0
2015-Jun-28 17:30N 41°22' W 071°50'0 0.0
2015-Jun-28 16:33N 41°22' W 071°50'0 0.0
2015-Jun-28 15:33N 41°22' W 071°50'0 0.0
2015-Jun-28 14:33N 41°22' W 071°50'0 0.0
2015-Jun-28 13:33N 41°22' W 071°50'0 0.0
2015-Jun-28 12:33N 41°22' W 071°50'0 0.0
2015-Jun-28 11:30N 41°22' W 071°50'0 0.0
2015-Jun-28 10:33N 41°22' W 071°50'0 0.0
2015-Jun-28 09:33N 41°22' W 071°50'0 0.0
2015-Jun-28 08:30N 41°22' W 071°50'0 0.0
2015-Jun-28 07:33N 41°22' W 071°50'0 0.0
2015-Jun-28 06:33N 41°22' W 071°50'0 0.0
2015-Jun-28 05:33N 41°22' W 071°50'0 0.0
2015-Jun-28 04:33N 41°22' W 071°50'0 0.0
2015-Jun-28 03:30N 41°22' W 071°50'0 0.0
2015-Jun-28 02:33N 41°22' W 071°50'0 0.0
2015-Jun-28 01:33N 41°22' W 071°50'0 0.0
2015-Jun-28 00:33N 41°22' W 071°50'0 0.0
2015-Jun-27 23:33N 41°22' W 071°50'0 0.0
2015-Jun-27 22:33N 41°22' W 071°50'0 0.0
2015-Jun-27 21:33N 41°22' W 071°50'0 0.0
2015-Jun-27 20:33N 41°22' W 071°50'0 0.0
2015-Jun-27 19:33N 41°22' W 071°50'0 0.0
2015-Jun-27 18:33N 41°22' W 071°50'0 0.0
2015-Jun-27 17:33N 41°22' W 071°50'0 0.0
2015-Jun-27 16:33N 41°22' W 071°50'0 0.0
2015-Jun-27 15:30N 41°22' W 071°50'0 0.0
2015-Jun-27 14:33N 41°22' W 071°50'0 0.0
2015-Jun-27 13:33N 41°22' W 071°50'0 0.0
2015-Jun-27 12:33N 41°22' W 071°50'0 0.0
2015-Jun-27 11:33N 41°22' W 071°50'0 0.0
2015-Jun-27 10:33N 41°22' W 071°50'0 0.0
2015-Jun-27 09:33N 41°22' W 071°50'0 0.0
2015-Jun-27 08:33N 41°22' W 071°50'0 0.0
2015-Jun-27 07:33N 41°22' W 071°50'0 0.0
2015-Jun-27 06:33N 41°22' W 071°50'0 0.0
2015-Jun-27 05:33N 41°22' W 071°50'0 0.0
2015-Jun-27 04:30N 41°22' W 071°50'0 0.0
2015-Jun-27 03:27N 41°22' W 071°50'0 0.0
2015-Jun-27 02:33N 41°22' W 071°50'0 0.0
2015-Jun-27 01:33N 41°22' W 071°50'0 0.0
2015-Jun-27 00:30N 41°22' W 071°50'0 0.0
2015-Jun-26 23:33N 41°22' W 071°50'0 0.0
2015-Jun-26 22:30N 41°22' W 071°50'0 0.0
2015-Jun-26 21:27N 41°22' W 071°50'0 0.0
2015-Jun-26 20:33N 41°22' W 071°50'0 0.0
2015-Jun-26 19:30N 41°22' W 071°50'0 0.0
2015-Jun-26 18:30N 41°22' W 071°50'0 0.0
2015-Jun-26 17:24N 41°22' W 071°50'0 0.0
2015-Jun-26 16:33N 41°22' W 071°50'0 0.0
2015-Jun-26 12:33N 41°22' W 071°50'0 0.0
2015-Jun-26 11:33N 41°22' W 071°50'0 0.0
2015-Jun-26 10:33N 41°22' W 071°50'0 0.0
2015-Jun-26 09:33N 41°22' W 071°50'0 0.0
2015-Jun-26 08:33N 41°22' W 071°50'0 0.0
2015-Jun-26 07:34N 41°22' W 071°50'0 0.0
2015-Jun-26 06:25N 41°22' W 071°50'0 0.0
2015-Jun-26 05:25N 41°22' W 071°50'0 0.0
2015-Jun-26 04:34N 41°22' W 071°50'0 0.0
2015-Jun-26 03:31N 41°22' W 071°50'0 0.0
2015-Jun-26 02:31N 41°22' W 071°50'0 0.0
2015-Jun-26 01:28N 41°22' W 071°50'0 0.0
2015-Jun-26 00:25N 41°22' W 071°50'0 0.0
2015-Jun-25 23:31N 41°22' W 071°50'0 0.0
2015-Jun-25 22:31N 41°22' W 071°50'0 0.0
2015-Jun-25 21:31N 41°22' W 071°50'0 0.0
2015-Jun-25 20:31N 41°22' W 071°50'0 0.0
2015-Jun-25 19:31N 41°22' W 071°50'0 0.0
2015-Jun-25 18:31N 41°22' W 071°50'0 0.0
2015-Jun-25 17:31N 41°22' W 071°50'0 0.0
2015-Jun-25 16:31N 41°22' W 071°50'0 0.0
2015-Jun-25 15:31N 41°22' W 071°50'0 0.0
2015-Jun-25 14:31N 41°22' W 071°50'0 0.0
2015-Jun-25 13:31N 41°22' W 071°50'0 0.0
2015-Jun-25 11:31N 41°22' W 071°50'0 0.0
2015-Jun-25 10:28N 41°22' W 071°50'0 0.0
2015-Jun-25 09:31N 41°22' W 071°50'0 0.0
2015-Jun-25 08:31N 41°22' W 071°50'0 0.0
2015-Jun-25 07:31N 41°22' W 071°50'0 0.0
2015-Jun-25 06:31N 41°22' W 071°50'0 0.0
2015-Jun-25 05:31N 41°22' W 071°50'0 0.0
2015-Jun-25 04:31N 41°22' W 071°50'0 0.0
2015-Jun-25 03:31N 41°22' W 071°50'0 0.0
2015-Jun-25 02:31N 41°22' W 071°50'0 0.0
2015-Jun-25 01:31N 41°22' W 071°50'0 0.0
2015-Jun-25 00:28N 41°22' W 071°50'0 0.0
2015-Jun-24 23:31N 41°22' W 071°50'0 0.0
2015-Jun-24 22:31N 41°22' W 071°50'0 0.0
2015-Jun-24 21:28N 41°22' W 071°50'0 0.0
2015-Jun-24 20:31N 41°22' W 071°50'0 0.0
2015-Jun-24 19:31N 41°22' W 071°50'0 0.0
2015-Jun-24 18:28N 41°22' W 071°50'0 0.0
2015-Jun-24 17:31N 41°22' W 071°50'0 0.0
2015-Jun-24 16:28N 41°22' W 071°50'0 0.0
2015-Jun-24 15:31N 41°22' W 071°50'0 0.0
2015-Jun-24 14:22N 41°22' W 071°50'0 0.0
2015-Jun-24 13:31N 41°22' W 071°50'0 0.0
2015-Jun-24 12:22N 41°22' W 071°50'0 0.0
2015-Jun-24 11:28N 41°22' W 071°50'0 0.0
2015-Jun-24 10:28N 41°22' W 071°50'0 0.0
2015-Jun-24 09:31N 41°22' W 071°50'0 0.0
2015-Jun-24 08:31N 41°22' W 071°50'0 0.0
2015-Jun-24 07:31N 41°22' W 071°50'0 0.0
2015-Jun-24 06:31N 41°22' W 071°50'0 0.0
2015-Jun-24 05:31N 41°22' W 071°50'0 0.0
2015-Jun-24 04:31N 41°22' W 071°50'0 0.0
2015-Jun-24 03:31N 41°22' W 071°50'0 0.0
2015-Jun-24 02:25N 41°22' W 071°50'0 0.0
2015-Jun-24 00:31N 41°22' W 071°50'0 0.0
2015-Jun-23 23:31N 41°22' W 071°50'0 0.0
2015-Jun-23 22:31N 41°22' W 071°50'0 0.0
2015-Jun-23 21:22N 41°22' W 071°50'0 0.0
2015-Jun-23 20:31N 41°22' W 071°50'0 0.0
2015-Jun-23 19:28N 41°22' W 071°50'0 0.0
2015-Jun-23 18:52N 41°22' W 071°50'0 0.0
2015-Jun-22 19:25N 41°22' W 071°50'0 0.0
2015-Jun-22 18:22N 41°22' W 071°50'0 0.0
2015-Jun-22 17:31N 41°22' W 071°50'0 0.0
2015-Jun-22 16:31N 41°22' W 071°50'0 0.0
2015-Jun-22 15:31N 41°22' W 071°50'0 0.0
2015-Jun-22 14:25N 41°22' W 071°50'0 0.0
2015-Jun-22 13:31N 41°22' W 071°50'0 0.0
2015-Jun-21 14:31N 41°22' W 071°50'0 0.0
2015-Jun-21 13:31N 41°22' W 071°50'0 0.0
2015-Jun-21 12:31N 41°22' W 071°50'0 0.0
2015-Jun-21 11:31N 41°22' W 071°50'0 0.0
2015-Jun-21 10:31N 41°22' W 071°50'0 0.0
2015-Jun-21 09:31N 41°22' W 071°50'0 0.0
2015-Jun-21 08:32N 41°22' W 071°50'  

Dump ship's entire track history